Mc Minnville Municipal Airport Mc Minnville US
ICAO: KMMV
IATA: MMV
Category: Medium
Scheduled Services: No

Elevation: 163 ft
TransAlt. 18000 ft.

Airport Communications:
PORTLAND APP/DEP:126
ASOS:135.675
PORTLAND CLNC DEL:118.35
SEATTLE CNTR:125.8
RDO:122.3
CTAF/UNICOM:123

KMMV Zoom In..

If Map Doesn't Load, Click Here

Runways:

(A) RW 04 length 5420 ft width 150 ft
---- / hdg 38

(B) RW 17 length 4340 ft width 75 ft
---- / hdg 167

(C) RW 22 length 5420 ft width 150 ft
ILS 110.90 / hdg 218

(D) RW 35 length 4340 ft width 75 ft
---- / hdg 347

Location; KMMV
Day. 26 / Time. 09.53 Zulu
* Altimeter: 30.13
* Temperature: 17° c. 62.6°f.
* Wind from: 350° Speed 08 kn.
Dewpoint: 07° c.
Visibility: 10 Statute Miles.
Clouds: Clear (automated report).

KMMV 260953Z AUTO 35008KT 10SM CLR 17/07 A3013 RMK AO2 SLP202 T01670072


Wind From 350°
Speed 08 kn.

 
 
jpsmedia.com for Web Design worldairports.se 2018   terms of use